sensor_id;sensor_type;location;lat;lon;timestamp;temperature;humidity
80412;SHT30;69749;42.684;23.360;2023-06-14T00:00:43;18.50;80.07
80412;SHT30;69749;42.684;23.360;2023-06-14T00:03:10;18.61;79.38
80412;SHT30;69749;42.684;23.360;2023-06-14T00:05:37;18.68;79.27
80412;SHT30;69749;42.684;23.360;2023-06-14T00:08:08;18.61;79.42
80412;SHT30;69749;42.684;23.360;2023-06-14T00:10:35;18.52;79.87
80412;SHT30;69749;42.684;23.360;2023-06-14T00:13:04;18.42;80.23
80412;SHT30;69749;42.684;23.360;2023-06-14T00:15:31;18.39;80.22
80412;SHT30;69749;42.684;23.360;2023-06-14T00:17:57;18.36;80.49
80412;SHT30;69749;42.684;23.360;2023-06-14T00:20:26;18.35;80.60
80412;SHT30;69749;42.684;23.360;2023-06-14T00:22:52;18.30;80.94
80412;SHT30;69749;42.684;23.360;2023-06-14T00:25:17;18.28;80.68
80412;SHT30;69749;42.684;23.360;2023-06-14T00:27:42;18.33;80.38
80412;SHT30;69749;42.684;23.360;2023-06-14T00:30:08;18.32;80.29
80412;SHT30;69749;42.684;23.360;2023-06-14T00:32:34;18.25;80.78
80412;SHT30;69749;42.684;23.360;2023-06-14T00:35:02;18.26;81.04
80412;SHT30;69749;42.684;23.360;2023-06-14T00:37:30;18.24;81.26
80412;SHT30;69749;42.684;23.360;2023-06-14T00:39:55;18.18;81.42
80412;SHT30;69749;42.684;23.360;2023-06-14T00:42:25;18.12;81.34
80412;SHT30;69749;42.684;23.360;2023-06-14T00:44:50;18.12;81.59
80412;SHT30;69749;42.684;23.360;2023-06-14T00:47:16;18.18;81.47
80412;SHT30;69749;42.684;23.360;2023-06-14T00:49:41;18.12;81.68
80412;SHT30;69749;42.684;23.360;2023-06-14T00:52:07;18.21;81.50
80412;SHT30;69749;42.684;23.360;2023-06-14T00:54:33;18.21;81.11
80412;SHT30;69749;42.684;23.360;2023-06-14T00:56:58;18.24;80.72
80412;SHT30;69749;42.684;23.360;2023-06-14T00:59:24;18.40;80.44
80412;SHT30;69749;42.684;23.360;2023-06-14T01:01:50;18.52;79.99
80412;SHT30;69749;42.684;23.360;2023-06-14T01:04:15;18.45;80.35
80412;SHT30;69749;42.684;23.360;2023-06-14T01:06:48;18.32;80.62
80412;SHT30;69749;42.684;23.360;2023-06-14T01:09:27;18.46;80.36
80412;SHT30;69749;42.684;23.360;2023-06-14T01:12:33;18.36;80.34
80412;SHT30;69749;42.684;23.360;2023-06-14T01:14:50;18.29;80.59
80412;SHT30;69749;42.684;23.360;2023-06-14T01:17:17;18.32;80.49
80412;SHT30;69749;42.684;23.360;2023-06-14T01:19:43;18.29;80.48
80412;SHT30;69749;42.684;23.360;2023-06-14T01:22:09;18.38;79.88
80412;SHT30;69749;42.684;23.360;2023-06-14T01:24:35;18.35;79.95
80412;SHT30;69749;42.684;23.360;2023-06-14T01:27:01;18.40;79.81
80412;SHT30;69749;42.684;23.360;2023-06-14T01:29:28;18.28;80.08
80412;SHT30;69749;42.684;23.360;2023-06-14T01:31:58;18.30;80.17
80412;SHT30;69749;42.684;23.360;2023-06-14T01:34:25;18.28;80.34
80412;SHT30;69749;42.684;23.360;2023-06-14T01:36:52;18.35;80.14
80412;SHT30;69749;42.684;23.360;2023-06-14T01:39:21;18.28;80.20
80412;SHT30;69749;42.684;23.360;2023-06-14T01:41:48;18.29;79.71
80412;SHT30;69749;42.684;23.360;2023-06-14T01:44:14;18.32;80.15
80412;SHT30;69749;42.684;23.360;2023-06-14T01:46:42;18.30;79.73
80412;SHT30;69749;42.684;23.360;2023-06-14T01:49:07;18.33;79.29
80412;SHT30;69749;42.684;23.360;2023-06-14T01:51:33;18.24;79.46
80412;SHT30;69749;42.684;23.360;2023-06-14T01:53:58;18.38;79.68
80412;SHT30;69749;42.684;23.360;2023-06-14T01:56:25;18.38;79.83
80412;SHT30;69749;42.684;23.360;2023-06-14T01:58:51;18.49;79.45
80412;SHT30;69749;42.684;23.360;2023-06-14T02:01:17;18.39;79.55
80412;SHT30;69749;42.684;23.360;2023-06-14T02:03:44;18.22;79.97
80412;SHT30;69749;42.684;23.360;2023-06-14T02:06:10;18.42;79.17
80412;SHT30;69749;42.684;23.360;2023-06-14T02:08:35;18.46;78.62
80412;SHT30;69749;42.684;23.360;2023-06-14T02:11:01;18.33;79.40
80412;SHT30;69749;42.684;23.360;2023-06-14T02:13:26;18.32;79.70
80412;SHT30;69749;42.684;23.360;2023-06-14T02:15:52;18.30;79.82
80412;SHT30;69749;42.684;23.360;2023-06-14T02:18:20;18.26;79.66
80412;SHT30;69749;42.684;23.360;2023-06-14T02:20:49;18.26;79.80
80412;SHT30;69749;42.684;23.360;2023-06-14T02:23:15;18.33;79.57
80412;SHT30;69749;42.684;23.360;2023-06-14T02:25:40;18.15;79.97
80412;SHT30;69749;42.684;23.360;2023-06-14T02:28:06;18.26;79.53
80412;SHT30;69749;42.684;23.360;2023-06-14T02:30:31;18.29;79.26
80412;SHT30;69749;42.684;23.360;2023-06-14T02:32:56;18.25;79.11
80412;SHT30;69749;42.684;23.360;2023-06-14T02:35:22;18.13;79.73
80412;SHT30;69749;42.684;23.360;2023-06-14T02:37:51;18.06;80.11
80412;SHT30;69749;42.684;23.360;2023-06-14T02:40:18;18.12;80.23
80412;SHT30;69749;42.684;23.360;2023-06-14T02:42:43;18.09;80.07
80412;SHT30;69749;42.684;23.360;2023-06-14T02:45:08;17.99;80.21
80412;SHT30;69749;42.684;23.360;2023-06-14T02:47:34;17.94;80.71
80412;SHT30;69749;42.684;23.360;2023-06-14T02:49:59;17.97;80.83
80412;SHT30;69749;42.684;23.360;2023-06-14T02:52:25;17.85;81.26
80412;SHT30;69749;42.684;23.360;2023-06-14T02:54:50;17.87;81.24
80412;SHT30;69749;42.684;23.360;2023-06-14T02:57:16;17.97;80.51
80412;SHT30;69749;42.684;23.360;2023-06-14T02:59:41;17.95;80.37
80412;SHT30;69749;42.684;23.360;2023-06-14T03:02:07;18.08;79.63
80412;SHT30;69749;42.684;23.360;2023-06-14T03:04:32;18.04;79.78
80412;SHT30;69749;42.684;23.360;2023-06-14T03:07:02;17.95;80.09
80412;SHT30;69749;42.684;23.360;2023-06-14T03:09:35;17.84;80.71
80412;SHT30;69749;42.684;23.360;2023-06-14T03:12:01;17.77;81.20
80412;SHT30;69749;42.684;23.360;2023-06-14T03:14:26;17.80;81.22
80412;SHT30;69749;42.684;23.360;2023-06-14T03:16:51;17.74;81.33
80412;SHT30;69749;42.684;23.360;2023-06-14T03:19:22;17.82;80.89
80412;SHT30;69749;42.684;23.360;2023-06-14T03:21:51;17.91;80.66
80412;SHT30;69749;42.684;23.360;2023-06-14T03:24:17;17.87;80.48
80412;SHT30;69749;42.684;23.360;2023-06-14T03:26:42;18.01;79.91
80412;SHT30;69749;42.684;23.360;2023-06-14T03:29:08;18.04;79.96
80412;SHT30;69749;42.684;23.360;2023-06-14T03:31:34;18.01;79.90
80412;SHT30;69749;42.684;23.360;2023-06-14T03:34:00;18.10;79.32
80412;SHT30;69749;42.684;23.360;2023-06-14T03:36:26;18.13;79.63
80412;SHT30;69749;42.684;23.360;2023-06-14T03:38:53;18.09;79.68
80412;SHT30;69749;42.684;23.360;2023-06-14T03:41:18;17.98;80.13
80412;SHT30;69749;42.684;23.360;2023-06-14T03:43:44;17.92;80.46
80412;SHT30;69749;42.684;23.360;2023-06-14T03:46:09;18.09;79.51
80412;SHT30;69749;42.684;23.360;2023-06-14T03:48:34;18.22;78.88
80412;SHT30;69749;42.684;23.360;2023-06-14T03:51:00;18.24;78.60
80412;SHT30;69749;42.684;23.360;2023-06-14T03:53:25;18.18;78.68
80412;SHT30;69749;42.684;23.360;2023-06-14T03:55:53;18.22;78.76
80412;SHT30;69749;42.684;23.360;2023-06-14T03:58:19;18.18;78.57
80412;SHT30;69749;42.684;23.360;2023-06-14T04:00:45;18.18;79.20
80412;SHT30;69749;42.684;23.360;2023-06-14T04:03:11;18.06;79.71
80412;SHT30;69749;42.684;23.360;2023-06-14T04:05:38;18.18;78.68
80412;SHT30;69749;42.684;23.360;2023-06-14T04:08:07;18.12;79.16
80412;SHT30;69749;42.684;23.360;2023-06-14T04:10:34;18.21;79.27
80412;SHT30;69749;42.684;23.360;2023-06-14T04:12:59;18.29;78.88
80412;SHT30;69749;42.684;23.360;2023-06-14T04:15:25;18.25;78.67
80412;SHT30;69749;42.684;23.360;2023-06-14T04:17:53;18.33;79.01
80412;SHT30;69749;42.684;23.360;2023-06-14T04:20:22;18.36;79.08
80412;SHT30;69749;42.684;23.360;2023-06-14T04:22:49;18.39;79.16
80412;SHT30;69749;42.684;23.360;2023-06-14T04:25:14;18.52;78.74
80412;SHT30;69749;42.684;23.360;2023-06-14T04:27:40;18.61;78.44
80412;SHT30;69749;42.684;23.360;2023-06-14T04:30:07;18.68;78.04
80412;SHT30;69749;42.684;23.360;2023-06-14T04:32:32;18.80;76.63
80412;SHT30;69749;42.684;23.360;2023-06-14T04:35:05;18.90;76.39
80412;SHT30;69749;42.684;23.360;2023-06-14T04:37:31;19.10;75.71
80412;SHT30;69749;42.684;23.360;2023-06-14T04:39:57;19.10;75.90
80412;SHT30;69749;42.684;23.360;2023-06-14T04:42:23;19.41;75.22
80412;SHT30;69749;42.684;23.360;2023-06-14T04:44:51;19.59;73.72
80412;SHT30;69749;42.684;23.360;2023-06-14T04:47:20;19.62;72.97
80412;SHT30;69749;42.684;23.360;2023-06-14T04:49:46;19.54;72.55
80412;SHT30;69749;42.684;23.360;2023-06-14T04:52:11;19.46;72.49
80412;SHT30;69749;42.684;23.360;2023-06-14T04:54:38;19.44;73.26
80412;SHT30;69749;42.684;23.360;2023-06-14T04:57:06;19.51;73.36
80412;SHT30;69749;42.684;23.360;2023-06-14T04:59:32;19.34;73.21
80412;SHT30;69749;42.684;23.360;2023-06-14T05:01:58;19.36;73.54
80412;SHT30;69749;42.684;23.360;2023-06-14T05:04:25;19.61;72.35
80412;SHT30;69749;42.684;23.360;2023-06-14T05:06:52;19.86;71.56
80412;SHT30;69749;42.684;23.360;2023-06-14T05:09:20;19.94;70.93
80412;SHT30;69749;42.684;23.360;2023-06-14T05:11:46;20.06;71.01
80412;SHT30;69749;42.684;23.360;2023-06-14T05:14:13;20.03;70.79
80412;SHT30;69749;42.684;23.360;2023-06-14T05:16:38;19.98;71.67
80412;SHT30;69749;42.684;23.360;2023-06-14T05:19:05;19.96;72.02
80412;SHT30;69749;42.684;23.360;2023-06-14T05:21:30;20.01;71.48
80412;SHT30;69749;42.684;23.360;2023-06-14T05:23:57;20.21;70.47
80412;SHT30;69749;42.684;23.360;2023-06-14T05:26:22;20.20;70.37
80412;SHT30;69749;42.684;23.360;2023-06-14T05:28:56;20.07;70.80
80412;SHT30;69749;42.684;23.360;2023-06-14T05:31:26;20.27;70.25
80412;SHT30;69749;42.684;23.360;2023-06-14T05:33:57;20.33;70.09
80412;SHT30;69749;42.684;23.360;2023-06-14T05:36:22;20.34;70.30
80412;SHT30;69749;42.684;23.360;2023-06-14T05:38:48;20.45;70.44
80412;SHT30;69749;42.684;23.360;2023-06-14T05:41:14;20.64;70.30
80412;SHT30;69749;42.684;23.360;2023-06-14T05:43:39;20.59;70.20
80412;SHT30;69749;42.684;23.360;2023-06-14T05:46:04;20.69;70.18
80412;SHT30;69749;42.684;23.360;2023-06-14T05:48:30;20.65;69.22
80412;SHT30;69749;42.684;23.360;2023-06-14T05:50:56;20.64;69.38
80412;SHT30;69749;42.684;23.360;2023-06-14T05:53:21;20.65;70.13
80412;SHT30;69749;42.684;23.360;2023-06-14T05:55:46;20.72;69.13
80412;SHT30;69749;42.684;23.360;2023-06-14T05:58:12;20.83;68.80
80412;SHT30;69749;42.684;23.360;2023-06-14T06:00:39;20.73;69.50
80412;SHT30;69749;42.684;23.360;2023-06-14T06:03:04;20.78;69.88
80412;SHT30;69749;42.684;23.360;2023-06-14T06:05:30;20.78;69.05
80412;SHT30;69749;42.684;23.360;2023-06-14T06:07:55;20.72;68.84
80412;SHT30;69749;42.684;23.360;2023-06-14T06:10:21;20.78;69.35
80412;SHT30;69749;42.684;23.360;2023-06-14T06:12:46;21.03;69.32
80412;SHT30;69749;42.684;23.360;2023-06-14T06:15:13;21.33;68.20
80412;SHT30;69749;42.684;23.360;2023-06-14T06:17:39;21.37;67.28
80412;SHT30;69749;42.684;23.360;2023-06-14T06:20:06;21.34;67.34
80412;SHT30;69749;42.684;23.360;2023-06-14T06:22:34;21.40;67.45
80412;SHT30;69749;42.684;23.360;2023-06-14T06:24:59;21.51;66.42
80412;SHT30;69749;42.684;23.360;2023-06-14T06:27:24;21.51;65.86
80412;SHT30;69749;42.684;23.360;2023-06-14T06:29:50;21.70;66.45
80412;SHT30;69749;42.684;23.360;2023-06-14T06:32:17;21.74;65.90
80412;SHT30;69749;42.684;23.360;2023-06-14T06:34:42;21.61;66.74
80412;SHT30;69749;42.684;23.360;2023-06-14T06:37:08;21.57;65.49
80412;SHT30;69749;42.684;23.360;2023-06-14T06:39:33;21.47;66.74
80412;SHT30;69749;42.684;23.360;2023-06-14T06:41:58;21.43;66.91
80412;SHT30;69749;42.684;23.360;2023-06-14T06:44:24;21.41;66.35
80412;SHT30;69749;42.684;23.360;2023-06-14T06:46:49;21.39;67.81
80412;SHT30;69749;42.684;23.360;2023-06-14T06:49:15;21.30;66.58
80412;SHT30;69749;42.684;23.360;2023-06-14T06:51:43;21.27;66.91
80412;SHT30;69749;42.684;23.360;2023-06-14T06:54:10;21.27;66.41
80412;SHT30;69749;42.684;23.360;2023-06-14T06:56:36;21.18;68.03
80412;SHT30;69749;42.684;23.360;2023-06-14T06:59:01;21.12;67.32
80412;SHT30;69749;42.684;23.360;2023-06-14T07:01:26;21.18;67.36
80412;SHT30;69749;42.684;23.360;2023-06-14T07:03:54;21.34;66.96
80412;SHT30;69749;42.684;23.360;2023-06-14T07:06:19;21.46;67.02
80412;SHT30;69749;42.684;23.360;2023-06-14T07:08:45;21.54;65.85
80412;SHT30;69749;42.684;23.360;2023-06-14T07:11:11;21.57;66.22
80412;SHT30;69749;42.684;23.360;2023-06-14T07:13:37;21.51;64.47
80412;SHT30;69749;42.684;23.360;2023-06-14T07:16:04;21.46;65.15
80412;SHT30;69749;42.684;23.360;2023-06-14T07:18:29;21.73;64.18
80412;SHT30;69749;42.684;23.360;2023-06-14T07:20:56;21.95;63.48
80412;SHT30;69749;42.684;23.360;2023-06-14T07:23:22;22.26;63.85
80412;SHT30;69749;42.684;23.360;2023-06-14T07:25:48;22.64;63.15
80412;SHT30;69749;42.684;23.360;2023-06-14T07:28:13;23.08;61.87
80412;SHT30;69749;42.684;23.360;2023-06-14T07:30:39;23.48;60.89
80412;SHT30;69749;42.684;23.360;2023-06-14T07:33:05;24.09;59.22
80412;SHT30;69749;42.684;23.360;2023-06-14T07:35:30;24.51;58.35
80412;SHT30;69749;42.684;23.360;2023-06-14T07:37:56;24.31;57.09
80412;SHT30;69749;42.684;23.360;2023-06-14T07:40:21;24.99;56.12
80412;SHT30;69749;42.684;23.360;2023-06-14T07:42:47;26.04;53.51
80412;SHT30;69749;42.684;23.360;2023-06-14T07:45:13;26.49;51.96
80412;SHT30;69749;42.684;23.360;2023-06-14T07:47:39;26.22;53.01
80412;SHT30;69749;42.684;23.360;2023-06-14T07:50:05;25.56;53.20
80412;SHT30;69749;42.684;23.360;2023-06-14T07:52:31;26.21;52.65
80412;SHT30;69749;42.684;23.360;2023-06-14T07:54:56;27.12;49.83
80412;SHT30;69749;42.684;23.360;2023-06-14T07:57:22;27.49;46.85
80412;SHT30;69749;42.684;23.360;2023-06-14T07:59:47;26.94;48.36
80412;SHT30;69749;42.684;23.360;2023-06-14T08:02:14;26.82;49.10
80412;SHT30;69749;42.684;23.360;2023-06-14T08:04:39;26.76;50.15
80412;SHT30;69749;42.684;23.360;2023-06-14T08:07:05;26.53;51.15
80412;SHT30;69749;42.684;23.360;2023-06-14T08:09:31;26.33;51.02
80412;SHT30;69749;42.684;23.360;2023-06-14T08:11:56;26.02;50.32
80412;SHT30;69749;42.684;23.360;2023-06-14T08:14:22;25.46;50.37
80412;SHT30;69749;42.684;23.360;2023-06-14T08:16:48;25.36;51.42
80412;SHT30;69749;42.684;23.360;2023-06-14T08:19:13;24.96;52.96
80412;SHT30;69749;42.684;23.360;2023-06-14T08:21:38;25.09;53.73
80412;SHT30;69749;42.684;23.360;2023-06-14T08:24:05;25.19;53.03
80412;SHT30;69749;42.684;23.360;2023-06-14T08:26:30;25.29;52.83
80412;SHT30;69749;42.684;23.360;2023-06-14T08:28:57;25.12;52.92
80412;SHT30;69749;42.684;23.360;2023-06-14T08:31:23;25.36;53.24
80412;SHT30;69749;42.684;23.360;2023-06-14T08:33:50;25.56;51.66
80412;SHT30;69749;42.684;23.360;2023-06-14T08:36:15;25.78;51.82
80412;SHT30;69749;42.684;23.360;2023-06-14T08:38:41;26.02;49.38
80412;SHT30;69749;42.684;23.360;2023-06-14T08:41:07;26.17;49.33
80412;SHT30;69749;42.684;23.360;2023-06-14T08:43:33;26.05;50.76
80412;SHT30;69749;42.684;23.360;2023-06-14T08:46:02;26.35;50.08
80412;SHT30;69749;42.684;23.360;2023-06-14T08:48:28;26.70;49.84
80412;SHT30;69749;42.684;23.360;2023-06-14T08:50:55;27.00;48.43
80412;SHT30;69749;42.684;23.360;2023-06-14T08:53:28;27.20;46.51
80412;SHT30;69749;42.684;23.360;2023-06-14T08:55:54;27.37;47.01
80412;SHT30;69749;42.684;23.360;2023-06-14T08:58:20;26.66;47.12
80412;SHT30;69749;42.684;23.360;2023-06-14T09:00:49;26.84;46.95
80412;SHT30;69749;42.684;23.360;2023-06-14T09:03:17;26.84;48.27
80412;SHT30;69749;42.684;23.360;2023-06-14T09:05:46;26.80;48.25
80412;SHT30;69749;42.684;23.360;2023-06-14T09:08:12;26.87;48.66
80412;SHT30;69749;42.684;23.360;2023-06-14T09:10:39;26.76;49.48
80412;SHT30;69749;42.684;23.360;2023-06-14T09:13:04;26.83;49.32
80412;SHT30;69749;42.684;23.360;2023-06-14T09:15:30;26.25;50.07
80412;SHT30;69749;42.684;23.360;2023-06-14T09:17:56;26.11;50.86
80412;SHT30;69749;42.684;23.360;2023-06-14T09:20:24;25.51;51.15
80412;SHT30;69749;42.684;23.360;2023-06-14T09:22:49;25.47;51.86
80412;SHT30;69749;42.684;23.360;2023-06-14T09:25:15;25.59;51.01
80412;SHT30;69749;42.684;23.360;2023-06-14T09:27:41;25.61;51.13
80412;SHT30;69749;42.684;23.360;2023-06-14T09:30:09;25.95;50.58
80412;SHT30;69749;42.684;23.360;2023-06-14T09:32:38;25.91;49.56
80412;SHT30;69749;42.684;23.360;2023-06-14T09:35:06;25.78;50.35
80412;SHT30;69749;42.684;23.360;2023-06-14T09:37:33;26.09;48.44
80412;SHT30;69749;42.684;23.360;2023-06-14T09:39:59;26.21;48.03
80412;SHT30;69749;42.684;23.360;2023-06-14T09:42:25;26.04;49.36
80412;SHT30;69749;42.684;23.360;2023-06-14T09:44:52;26.38;48.13
80412;SHT30;69749;42.684;23.360;2023-06-14T09:47:19;26.75;47.81
80412;SHT30;69749;42.684;23.360;2023-06-14T09:49:44;26.64;47.50
80412;SHT30;69749;42.684;23.360;2023-06-14T09:52:12;26.76;47.40
80412;SHT30;69749;42.684;23.360;2023-06-14T09:54:41;27.01;47.66
80412;SHT30;69749;42.684;23.360;2023-06-14T09:57:12;27.27;47.13
80412;SHT30;69749;42.684;23.360;2023-06-14T09:59:41;27.11;45.91
80412;SHT30;69749;42.684;23.360;2023-06-14T10:02:10;26.91;47.10
80412;SHT30;69749;42.684;23.360;2023-06-14T10:04:37;26.80;45.72
80412;SHT30;69749;42.684;23.360;2023-06-14T10:07:03;26.94;45.47
80412;SHT30;69749;42.684;23.360;2023-06-14T10:09:30;26.90;46.01
80412;SHT30;69749;42.684;23.360;2023-06-14T10:11:56;26.73;47.32
80412;SHT30;69749;42.684;23.360;2023-06-14T10:14:21;26.50;46.96
80412;SHT30;69749;42.684;23.360;2023-06-14T10:16:56;26.46;47.55
80412;SHT30;69749;42.684;23.360;2023-06-14T10:20:18;26.77;47.47
80412;SHT30;69749;42.684;23.360;2023-06-14T10:22:43;27.08;45.40
80412;SHT30;69749;42.684;23.360;2023-06-14T10:25:13;27.00;45.51
80412;SHT30;69749;42.684;23.360;2023-06-14T10:27:38;26.90;47.23
80412;SHT30;69749;42.684;23.360;2023-06-14T10:30:07;26.79;46.62
80412;SHT30;69749;42.684;23.360;2023-06-14T10:32:33;26.63;47.16
80412;SHT30;69749;42.684;23.360;2023-06-14T10:35:01;26.80;46.77
80412;SHT30;69749;42.684;23.360;2023-06-14T10:37:29;26.87;46.48
80412;SHT30;69749;42.684;23.360;2023-06-14T10:39:54;26.94;45.90
80412;SHT30;69749;42.684;23.360;2023-06-14T10:42:20;26.88;46.58
80412;SHT30;69749;42.684;23.360;2023-06-14T10:44:55;26.50;46.46
80412;SHT30;69749;42.684;23.360;2023-06-14T10:47:31;26.55;46.11
80412;SHT30;69749;42.684;23.360;2023-06-14T10:50:05;26.60;46.35
80412;SHT30;69749;42.684;23.360;2023-06-14T10:52:38;26.70;47.36
80412;SHT30;69749;42.684;23.360;2023-06-14T10:55:17;26.60;47.49
80412;SHT30;69749;42.684;23.360;2023-06-14T10:57:45;26.73;46.42
80412;SHT30;69749;42.684;23.360;2023-06-14T11:00:13;26.69;47.24
80412;SHT30;69749;42.684;23.360;2023-06-14T11:05:25;26.69;46.91
80412;SHT30;69749;42.684;23.360;2023-06-14T11:08:20;26.86;46.25
80412;SHT30;69749;42.684;23.360;2023-06-14T11:10:51;26.97;45.60
80412;SHT30;69749;42.684;23.360;2023-06-14T11:13:18;27.10;45.19
80412;SHT30;69749;42.684;23.360;2023-06-14T11:15:46;27.15;45.35
80412;SHT30;69749;42.684;23.360;2023-06-14T11:18:13;27.21;45.64
80412;SHT30;69749;42.684;23.360;2023-06-14T11:20:39;27.27;46.18
80412;SHT30;69749;42.684;23.360;2023-06-14T11:23:05;27.14;45.26
80412;SHT30;69749;42.684;23.360;2023-06-14T11:25:30;27.12;46.29
80412;SHT30;69749;42.684;23.360;2023-06-14T11:27:56;27.00;45.98
80412;SHT30;69749;42.684;23.360;2023-06-14T11:30:23;26.93;46.40
80412;SHT30;69749;42.684;23.360;2023-06-14T11:32:49;26.57;45.70
80412;SHT30;69749;42.684;23.360;2023-06-14T11:35:15;26.67;45.45
80412;SHT30;69749;42.684;23.360;2023-06-14T11:37:41;26.59;46.86
80412;SHT30;69749;42.684;23.360;2023-06-14T11:40:10;26.66;46.73
80412;SHT30;69749;42.684;23.360;2023-06-14T11:42:37;26.86;46.85
80412;SHT30;69749;42.684;23.360;2023-06-14T11:45:04;26.96;46.37
80412;SHT30;69749;42.684;23.360;2023-06-14T11:47:32;27.01;46.63
80412;SHT30;69749;42.684;23.360;2023-06-14T11:49:59;27.08;46.36
80412;SHT30;69749;42.684;23.360;2023-06-14T11:52:25;26.96;45.70
80412;SHT30;69749;42.684;23.360;2023-06-14T11:54:51;26.93;45.52
80412;SHT30;69749;42.684;23.360;2023-06-14T11:57:18;26.84;46.06
80412;SHT30;69749;42.684;23.360;2023-06-14T11:59:44;26.82;45.41
80412;SHT30;69749;42.684;23.360;2023-06-14T12:02:13;26.83;45.78
80412;SHT30;69749;42.684;23.360;2023-06-14T12:04:41;26.61;45.47
80412;SHT30;69749;42.684;23.360;2023-06-14T12:07:16;26.67;45.76
80412;SHT30;69749;42.684;23.360;2023-06-14T12:12:28;26.96;45.27
80412;SHT30;69749;42.684;23.360;2023-06-14T12:14:55;26.93;45.55
80412;SHT30;69749;42.684;23.360;2023-06-14T12:17:21;26.19;47.11
80412;SHT30;69749;42.684;23.360;2023-06-14T12:19:48;26.33;46.83
80412;SHT30;69749;42.684;23.360;2023-06-14T12:22:15;26.55;45.93
80412;SHT30;69749;42.684;23.360;2023-06-14T12:24:44;26.52;46.10
80412;SHT30;69749;42.684;23.360;2023-06-14T12:27:10;26.26;46.50
80412;SHT30;69749;42.684;23.360;2023-06-14T12:29:43;26.14;47.33
80412;SHT30;69749;42.684;23.360;2023-06-14T12:32:09;26.12;47.93
80412;SHT30;69749;42.684;23.360;2023-06-14T12:34:35;25.87;47.47
80412;SHT30;69749;42.684;23.360;2023-06-14T12:37:01;25.90;46.52
80412;SHT30;69749;42.684;23.360;2023-06-14T12:39:26;25.87;47.01
80412;SHT30;69749;42.684;23.360;2023-06-14T12:41:52;25.99;47.03
80412;SHT30;69749;42.684;23.360;2023-06-14T12:44:18;26.05;47.92
80412;SHT30;69749;42.684;23.360;2023-06-14T12:46:43;25.92;47.66
80412;SHT30;69749;42.684;23.360;2023-06-14T12:49:12;25.91;47.58
80412;SHT30;69749;42.684;23.360;2023-06-14T12:51:38;25.90;47.24
80412;SHT30;69749;42.684;23.360;2023-06-14T12:54:04;25.81;46.71
80412;SHT30;69749;42.684;23.360;2023-06-14T12:56:29;25.61;47.32
80412;SHT30;69749;42.684;23.360;2023-06-14T12:58:55;25.66;48.26
80412;SHT30;69749;42.684;23.360;2023-06-14T13:01:20;25.66;47.24
80412;SHT30;69749;42.684;23.360;2023-06-14T13:03:47;25.20;47.57
80412;SHT30;69749;42.684;23.360;2023-06-14T13:06:12;25.29;47.40
80412;SHT30;69749;42.684;23.360;2023-06-14T13:08:38;25.32;46.74
80412;SHT30;69749;42.684;23.360;2023-06-14T13:11:04;25.39;47.15
80412;SHT30;69749;42.684;23.360;2023-06-14T13:13:29;25.46;46.70
80412;SHT30;69749;42.684;23.360;2023-06-14T13:15:55;25.33;49.09
80412;SHT30;69749;42.684;23.360;2023-06-14T13:18:20;25.15;51.66
80412;SHT30;69749;42.684;23.360;2023-06-14T13:20:46;24.72;53.80
80412;SHT30;69749;42.684;23.360;2023-06-14T13:23:12;24.60;55.09
80412;SHT30;69749;42.684;23.360;2023-06-14T13:25:38;24.40;54.85
80412;SHT30;69749;42.684;23.360;2023-06-14T13:28:04;24.04;55.41
80412;SHT30;69749;42.684;23.360;2023-06-14T13:30:30;24.03;55.85
80412;SHT30;69749;42.684;23.360;2023-06-14T13:32:56;23.76;56.37
80412;SHT30;69749;42.684;23.360;2023-06-14T13:35:22;23.37;58.92
80412;SHT30;69749;42.684;23.360;2023-06-14T13:37:48;22.91;61.85
80412;SHT30;69749;42.684;23.360;2023-06-14T13:40:13;22.67;64.82
80412;SHT30;69749;42.684;23.360;2023-06-14T13:42:39;22.52;65.88
80412;SHT30;69749;42.684;23.360;2023-06-14T13:45:06;22.32;67.16
80412;SHT30;69749;42.684;23.360;2023-06-14T13:47:32;21.97;66.26
80412;SHT30;69749;42.684;23.360;2023-06-14T13:49:57;21.75;66.71
80412;SHT30;69749;42.684;23.360;2023-06-14T13:52:23;21.70;67.60
80412;SHT30;69749;42.684;23.360;2023-06-14T13:54:49;21.65;66.31
80412;SHT30;69749;42.684;23.360;2023-06-14T13:57:15;21.81;66.22
80412;SHT30;69749;42.684;23.360;2023-06-14T13:59:41;21.62;64.85
80412;SHT30;69749;42.684;23.360;2023-06-14T14:02:07;21.67;66.01
80412;SHT30;69749;42.684;23.360;2023-06-14T14:04:34;21.68;66.11
80412;SHT30;69749;42.684;23.360;2023-06-14T14:07:03;21.77;65.67
80412;SHT30;69749;42.684;23.360;2023-06-14T14:09:28;21.89;63.96
80412;SHT30;69749;42.684;23.360;2023-06-14T14:11:54;21.99;63.05
80412;SHT30;69749;42.684;23.360;2023-06-14T14:14:19;22.08;64.25
80412;SHT30;69749;42.684;23.360;2023-06-14T14:16:45;21.92;63.96
80412;SHT30;69749;42.684;23.360;2023-06-14T14:19:11;21.84;65.42
80412;SHT30;69749;42.684;23.360;2023-06-14T14:21:36;21.88;66.51
80412;SHT30;69749;42.684;23.360;2023-06-14T14:24:03;21.95;65.18
80412;SHT30;69749;42.684;23.360;2023-06-14T14:26:28;21.84;64.84
80412;SHT30;69749;42.684;23.360;2023-06-14T14:28:54;21.84;65.27
80412;SHT30;69749;42.684;23.360;2023-06-14T14:31:19;21.91;65.86
80412;SHT30;69749;42.684;23.360;2023-06-14T14:33:45;21.78;67.70
80412;SHT30;69749;42.684;23.360;2023-06-14T14:36:10;21.53;68.19
80412;SHT30;69749;42.684;23.360;2023-06-14T14:38:36;21.43;67.63
80412;SHT30;69749;42.684;23.360;2023-06-14T14:41:01;21.55;68.28
80412;SHT30;69749;42.684;23.360;2023-06-14T14:43:26;21.55;66.27
80412;SHT30;69749;42.684;23.360;2023-06-14T14:45:55;21.65;65.15
80412;SHT30;69749;42.684;23.360;2023-06-14T14:48:20;21.67;65.48
80412;SHT30;69749;42.684;23.360;2023-06-14T14:50:46;21.78;65.86
80412;SHT30;69749;42.684;23.360;2023-06-14T14:53:11;21.80;65.91
80412;SHT30;69749;42.684;23.360;2023-06-14T14:55:37;21.74;66.14
80412;SHT30;69749;42.684;23.360;2023-06-14T14:58:03;21.49;68.13
80412;SHT30;69749;42.684;23.360;2023-06-14T15:00:28;21.29;69.29
80412;SHT30;69749;42.684;23.360;2023-06-14T15:02:54;21.14;70.29
80412;SHT30;69749;42.684;23.360;2023-06-14T15:05:19;21.22;69.18
80412;SHT30;69749;42.684;23.360;2023-06-14T15:07:45;21.13;68.03
80412;SHT30;69749;42.684;23.360;2023-06-14T15:10:11;21.07;68.40
80412;SHT30;69749;42.684;23.360;2023-06-14T15:12:36;20.95;69.94
80412;SHT30;69749;42.684;23.360;2023-06-14T15:15:02;20.89;69.71
80412;SHT30;69749;42.684;23.360;2023-06-14T15:17:28;20.95;69.07